Time;durP1;ratioP1;P1;durP2;ratioP2;P2;SDS_P1;SDS_P2;PMS_P1;PMS_P2;Temp;Humidity;BMP_temperature;BMP_pressure;BME280_temperature;BME280_humidity;BME280_pressure;Samples;Min_cycle;Max_cycle;Signal;HPM_P1;HPM_P2
2021/08/16 04:01:35;;;;;;;13.50;12.20;;;21.90;99.90;;;;;;5479550;22;20548;-65
2021/08/16 04:04:02;;;;;;;14.00;12.63;;;21.90;99.90;;;;;;4995826;28;20462;-65
2021/08/16 04:06:29;;;;;;;13.80;12.50;;;21.90;99.90;;;;;;4995460;28;20508;-65
2021/08/16 04:08:56;;;;;;;13.80;12.50;;;21.90;99.90;;;;;;4995446;28;20462;-65
2021/08/16 04:11:22;;;;;;;13.73;12.50;;;21.90;99.90;;;;;;4994979;28;21007;-65
2021/08/16 04:13:49;;;;;;;14.03;11.83;;;21.90;99.90;;;;;;4995412;28;20482;-65
2021/08/16 04:16:16;;;;;;;13.60;11.40;;;21.80;99.90;;;;;;4995290;28;20814;-65
2021/08/16 04:18:44;;;;;;;15.30;11.00;;;21.80;99.90;;;;;;4994671;28;20461;-65
2021/08/16 04:21:11;;;;;;;11.47;10.47;;;21.70;99.90;;;;;;4995030;28;20485;-64
2021/08/16 04:23:38;;;;;;;13.97;11.93;;;21.50;99.90;;;;;;4995853;28;20449;-65
2021/08/16 04:26:04;;;;;;;11.50;10.50;;;21.50;99.90;;;;;;4995123;28;20456;-65
2021/08/16 04:28:31;;;;;;;11.27;10.20;;;21.40;99.90;;;;;;4995184;28;20457;-65
2021/08/16 04:30:58;;;;;;;11.17;10.17;;;21.40;99.90;;;;;;4995248;28;20861;-65
2021/08/16 04:33:25;;;;;;;17.47;11.80;;;21.30;99.90;;;;;;4994969;28;20489;-65
2021/08/16 04:35:54;;;;;;;13.70;11.83;;;21.30;99.90;;;;;;4994952;28;20797;-65
2021/08/16 04:38:22;;;;;;;12.87;11.53;;;21.30;99.90;;;;;;4994973;28;20461;-64
2021/08/16 04:40:49;;;;;;;12.07;10.77;;;21.20;99.90;;;;;;4995003;28;20827;-64
2021/08/16 04:43:17;;;;;;;12.33;11.23;;;21.20;99.90;;;;;;4994866;28;20477;-65
2021/08/16 04:45:44;;;;;;;11.87;10.80;;;21.20;99.90;;;;;;4994354;28;20457;-64
2021/08/16 04:48:11;;;;;;;10.53;9.63;;;21.20;99.90;;;;;;4994637;28;20637;-65
2021/08/16 04:50:38;;;;;;;12.20;10.90;;;21.20;99.90;;;;;;4995235;28;20478;-64
2021/08/16 04:53:06;;;;;;;12.73;11.43;;;21.20;99.90;;;;;;4994759;28;20836;-64
2021/08/16 04:55:33;;;;;;;11.33;10.30;;;21.30;99.90;;;;;;4998325;28;20459;-65
2021/08/16 04:57:59;;;;;;;10.60;9.80;;;21.30;99.90;;;;;;5007606;28;20902;-65
2021/08/16 05:00:26;;;;;;;12.77;11.57;;;21.30;99.90;;;;;;4996060;28;20450;-64
2021/08/16 05:02:54;;;;;;;12.53;11.20;;;21.30;99.90;;;;;;4995299;28;20441;-65
2021/08/16 05:05:24;;;;;;;11.03;9.97;;;21.40;99.90;;;;;;4994527;28;20867;-65
2021/08/16 05:07:52;;;;;;;13.30;10.10;;;21.40;99.90;;;;;;4994169;28;20585;-65
2021/08/16 05:10:22;;;;;;;11.87;10.23;;;21.40;99.90;;;;;;4994349;28;20453;-64
2021/08/16 05:12:50;;;;;;;9.67;8.13;;;21.40;99.90;;;;;;4994474;28;20481;-64
2021/08/16 05:15:17;;;;;;;12.13;10.20;;;21.40;99.90;;;;;;4994154;28;20795;-64
2021/08/16 05:17:44;;;;;;;11.67;9.60;;;21.40;99.90;;;;;;4994317;28;20462;-64
2021/08/16 05:20:12;;;;;;;11.87;9.33;;;21.40;99.90;;;;;;4994244;28;20480;-64
2021/08/16 05:22:42;;;;;;;11.00;9.77;;;21.40;99.90;;;;;;4994196;28;20941;-64
2021/08/16 05:25:10;;;;;;;11.07;9.50;;;21.50;99.90;;;;;;4994388;28;20438;-65
2021/08/16 05:27:40;;;;;;;11.63;9.30;;;21.50;99.90;;;;;;4994227;28;20462;-65
2021/08/16 05:30:08;;;;;;;9.77;8.77;;;21.50;99.90;;;;;;4994132;28;20536;-65
2021/08/16 05:32:36;;;;;;;10.27;9.37;;;21.60;99.90;;;;;;4998289;28;20453;-64
2021/08/16 05:35:03;;;;;;;11.03;9.03;;;21.60;99.90;;;;;;4998001;28;20458;-65
2021/08/16 05:37:29;;;;;;;9.70;8.80;;;21.60;99.90;;;;;;4998249;28;20480;-65
2021/08/16 05:39:56;;;;;;;9.87;8.73;;;21.60;99.90;;;;;;4998281;28;20458;-65
2021/08/16 05:42:23;;;;;;;9.87;8.97;;;21.60;99.90;;;;;;4997696;28;20977;-64
2021/08/16 05:44:51;;;;;;;10.40;9.10;;;21.60;99.90;;;;;;4997926;28;20453;-65
2021/08/16 05:47:18;;;;;;;10.13;8.87;;;21.70;99.90;;;;;;4997994;28;20468;-65
2021/08/16 05:49:44;;;;;;;9.90;8.90;;;21.70;99.90;;;;;;4997665;28;20454;-65
2021/08/16 05:52:11;;;;;;;10.13;8.33;;;21.70;99.90;;;;;;4998051;28;20484;-64
2021/08/16 05:54:38;;;;;;;9.17;8.47;;;21.80;99.90;;;;;;4997690;28;20477;-65
2021/08/16 05:57:05;;;;;;;9.00;7.80;;;21.80;99.90;;;;;;4997529;28;20959;-65
2021/08/16 05:59:31;;;;;;;7.20;6.60;;;21.80;99.90;;;;;;4997854;28;20453;-65
2021/08/16 06:01:59;;;;;;;10.73;7.83;;;21.90;99.90;;;;;;4997391;28;20505;-64
2021/08/16 06:04:26;;;;;;;9.50;7.43;;;21.90;99.90;;;;;;4997828;28;20454;-64
2021/08/16 06:06:53;;;;;;;12.07;7.10;;;21.90;99.90;;;;;;4997777;28;20453;-65
2021/08/16 06:09:20;;;;;;;8.63;6.90;;;22.00;99.90;;;;;;4997703;28;20461;-64
2021/08/16 06:11:46;;;;;;;8.87;6.73;;;21.90;99.90;;;;;;4997292;28;21024;-65
2021/08/16 06:14:13;;;;;;;8.70;6.40;;;21.90;99.90;;;;;;4997553;28;20481;-65
2021/08/16 06:16:41;;;;;;;7.10;6.47;;;21.90;99.90;;;;;;4997568;28;20505;-65
2021/08/16 06:19:09;;;;;;;8.87;6.10;;;21.90;99.90;;;;;;4997590;28;20822;-65
2021/08/16 06:21:39;;;;;;;6.30;5.70;;;21.90;99.90;;;;;;4997349;28;20481;-64
2021/08/16 06:24:06;;;;;;;9.13;6.10;;;21.80;99.90;;;;;;4997559;28;20433;-64
2021/08/16 06:26:33;;;;;;;5.93;5.43;;;22.00;99.90;;;;;;4997416;28;20454;-65
2021/08/16 06:29:00;;;;;;;5.40;4.87;;;22.40;99.90;;;;;;4997491;28;20821;-65
2021/08/16 06:31:26;;;;;;;5.23;4.83;;;22.90;99.90;;;;;;4997326;28;20488;-64
2021/08/16 06:33:53;;;;;;;8.00;4.70;;;23.40;99.90;;;;;;4997434;28;20477;-65
2021/08/16 06:36:21;;;;;;;6.10;5.03;;;23.60;99.90;;;;;;5003942;28;20454;-64
2021/08/16 06:38:49;;;;;;;6.93;6.33;;;23.80;99.90;;;;;;5005471;28;20465;-64
2021/08/16 06:41:17;;;;;;;7.30;4.87;;;23.90;99.90;;;;;;5005155;28;20474;-64
2021/08/16 06:43:46;;;;;;;6.17;4.70;;;24.20;99.90;;;;;;5001734;28;20458;-64
2021/08/16 06:46:13;;;;;;;6.67;5.00;;;24.70;99.90;;;;;;4997099;28;20450;-65
2021/08/16 06:48:40;;;;;;;5.10;4.60;;;25.30;99.90;;;;;;4997227;28;20457;-64
2021/08/16 06:51:06;;;;;;;6.00;4.90;;;25.90;99.90;;;;;;4997222;28;20481;-64
2021/08/16 06:53:34;;;;;;;4.90;4.50;;;26.30;99.90;;;;;;4996848;28;20481;-65
2021/08/16 06:56:01;;;;;;;5.93;4.97;;;26.50;99.90;;;;;;4996794;28;20599;-65
2021/08/16 06:58:28;;;;;;;8.90;4.80;;;26.40;99.90;;;;;;4996858;28;20462;-65
2021/08/16 07:00:55;;;;;;;6.70;4.57;;;26.20;99.90;;;;;;4996312;28;20496;-64
2021/08/16 07:03:21;;;;;;;5.67;4.80;;;25.50;99.90;;;;;;4996752;28;20458;-65
2021/08/16 07:05:48;;;;;;;4.90;4.20;;;25.10;99.90;;;;;;4996372;28;20454;-65
2021/08/16 07:08:15;;;;;;;5.63;4.50;;;24.90;99.90;;;;;;4996270;28;20458;-64
2021/08/16 07:10:44;;;;;;;5.50;4.30;;;24.70;99.90;;;;;;5004191;28;20481;-64
2021/08/16 07:13:11;;;;;;;8.10;5.00;;;24.60;99.90;;;;;;5004770;28;20474;-64
2021/08/16 07:15:38;;;;;;;6.20;4.20;;;24.70;99.90;;;;;;4998884;28;20461;-64
2021/08/16 07:18:05;;;;;;;7.97;4.67;;;25.00;99.90;;;;;;4996606;28;20481;-64
2021/08/16 07:20:33;;;;;;;5.67;4.20;;;25.30;99.90;;;;;;4996413;28;20489;-64
2021/08/16 07:23:00;;;;;;;5.23;3.97;;;25.80;99.90;;;;;;4998068;28;20458;-65
2021/08/16 07:25:26;;;;;;;4.70;4.10;;;26.10;99.90;;;;;;4998156;28;20465;-64
2021/08/16 07:27:54;;;;;;;6.10;4.50;;;26.10;99.90;;;;;;4996659;28;20508;-65
2021/08/16 07:30:21;;;;;;;5.70;4.87;;;26.10;99.90;;;;;;4996414;28;20453;-64
2021/08/16 07:32:48;;;;;;;5.93;4.27;;;25.80;99.90;;;;;;4997376;28;20457;-65
2021/08/16 07:35:15;;;;;;;5.87;4.33;;;25.50;99.90;;;;;;4996446;28;20501;-66
2021/08/16 07:37:42;;;;;;;4.90;4.23;;;25.60;99.90;;;;;;4997039;28;20469;-65
2021/08/16 07:40:10;;;;;;;4.20;3.80;;;26.30;99.90;;;;;;4996171;28;20453;-65
2021/08/16 07:42:38;;;;;;;5.70;4.03;;;27.00;99.90;;;;;;4996165;28;20454;-65
2021/08/16 07:45:08;;;;;;;5.73;5.10;;;27.20;99.90;;;;;;5009597;28;20928;-65
2021/08/16 07:47:34;;;;;;;5.50;4.00;;;27.00;99.90;;;;;;4995715;28;20460;-65
2021/08/16 07:50:02;;;;;;;4.83;4.13;;;26.70;99.90;;;;;;4995537;28;20991;-65
2021/08/16 07:52:28;;;;;;;5.77;4.30;;;26.50;99.90;;;;;;4995543;28;20470;-65
2021/08/16 07:54:55;;;;;;;5.23;4.17;;;26.40;99.90;;;;;;4995128;28;20483;-65
2021/08/16 07:57:22;;;;;;;5.80;4.40;;;26.30;99.90;;;;;;4995337;28;20969;-65
2021/08/16 07:59:49;;;;;;;4.17;3.70;;;26.00;99.90;;;;;;4995594;28;20461;-65
2021/08/16 08:02:17;;;;;;;4.33;3.93;;;25.80;99.90;;;;;;4995318;28;20485;-65
2021/08/16 08:04:43;;;;;;;7.07;4.00;;;25.60;99.90;;;;;;4995314;28;20860;-65
2021/08/16 08:07:10;;;;;;;4.53;4.13;;;25.80;99.90;;;;;;4995535;28;20458;-65
2021/08/16 08:09:37;;;;;;;4.20;3.80;;;26.10;99.90;;;;;;4995009;28;20454;-65
2021/08/16 08:12:04;;;;;;;6.57;4.10;;;26.40;99.90;;;;;;4995586;28;20485;-65
2021/08/16 08:14:31;;;;;;;6.50;4.57;;;26.40;99.90;;;;;;4994916;28;20489;-65
2021/08/16 08:16:58;;;;;;;5.20;3.70;;;26.40;99.90;;;;;;4995302;28;20847;-65
2021/08/16 08:19:26;;;;;;;6.90;4.27;;;26.30;99.90;;;;;;4995276;28;20449;-65
2021/08/16 08:21:53;;;;;;;5.17;4.67;;;26.10;99.90;;;;;;4995627;28;20481;-65
2021/08/16 08:24:19;;;;;;;7.50;4.57;;;25.90;99.90;;;;;;4995388;28;20450;-65
2021/08/16 08:26:46;;;;;;;5.50;4.17;;;25.70;99.90;;;;;;4994872;28;20464;-65
2021/08/16 08:29:13;;;;;;;6.10;4.83;;;25.60;99.90;;;;;;5000059;28;20461;-65
2021/08/16 08:31:41;;;;;;;6.63;4.60;;;25.30;99.90;;;;;;5004610;28;20470;-64
2021/08/16 08:34:08;;;;;;;6.03;4.50;;;25.20;99.90;;;;;;4995542;28;20481;-64
2021/08/16 08:36:37;;;;;;;4.80;4.20;;;25.20;99.90;;;;;;4995224;28;20457;-64
2021/08/16 08:39:04;;;;;;;7.10;5.03;;;25.00;99.90;;;;;;4994706;28;20454;-64
2021/08/16 08:41:33;;;;;;;7.17;3.60;;;24.90;99.90;;;;;;4994898;28;20512;-64
2021/08/16 08:44:00;;;;;;;5.40;4.90;;;24.90;99.90;;;;;;4994801;28;20450;-64
2021/08/16 08:46:28;;;;;;;4.50;4.10;;;24.70;99.90;;;;;;4994828;28;20464;-64
2021/08/16 08:48:55;;;;;;;9.97;5.10;;;24.70;99.90;;;;;;4994766;28;20453;-65
2021/08/16 08:51:21;;;;;;;7.33;4.73;;;24.60;99.90;;;;;;4994596;28;20500;-64
2021/08/16 08:53:52;;;;;;;6.40;4.33;;;24.70;99.90;;;;;;4994724;28;20505;-65
2021/08/16 08:56:19;;;;;;;6.60;5.30;;;24.60;99.90;;;;;;4994674;28;20449;-65
2021/08/16 08:58:46;;;;;;;5.73;5.23;;;24.50;99.90;;;;;;4994339;28;20968;-65
2021/08/16 09:01:13;;;;;;;7.27;5.03;;;24.40;99.90;;;;;;4994409;28;20568;-65
2021/08/16 09:03:48;;;;;;;7.27;5.60;;;24.30;99.90;;;;;;4994510;28;20453;-64
2021/08/16 09:06:16;;;;;;;5.33;4.80;;;24.30;99.90;;;;;;4994344;28;20473;-64
2021/08/16 09:08:44;;;;;;;7.83;4.90;;;24.30;99.90;;;;;;4994430;28;20462;-64
2021/08/16 09:11:14;;;;;;;5.73;4.57;;;24.30;99.90;;;;;;4994362;28;20493;-65
2021/08/16 09:13:52;;;;;;;5.33;4.83;;;24.40;99.90;;;;;;4994121;28;20964;-65
2021/08/16 09:16:19;;;;;;;5.50;5.00;;;24.40;99.90;;;;;;4994146;28;20963;-65
2021/08/16 09:18:46;;;;;;;8.97;5.20;;;24.40;99.90;;;;;;4995077;28;20456;-65
2021/08/16 09:21:14;;;;;;;8.17;5.30;;;24.60;99.90;;;;;;4997443;28;20470;-65
2021/08/16 09:23:44;;;;;;;5.33;4.93;;;24.90;99.90;;;;;;4995292;28;20488;-65
2021/08/16 09:26:13;;;;;;;6.77;4.87;;;25.00;99.90;;;;;;4994338;28;20972;-65
2021/08/16 09:28:39;;;;;;;6.10;5.03;;;25.20;99.90;;;;;;4994269;28;20445;-65
2021/08/16 09:31:11;;;;;;;7.53;4.30;;;25.40;99.90;;;;;;4994217;28;20477;-65
2021/08/16 09:33:38;;;;;;;6.70;4.97;;;25.30;99.90;;;;;;4994253;28;20450;-65
2021/08/16 09:36:05;;;;;;;6.07;5.13;;;25.20;99.90;;;;;;4994320;28;20505;-65
2021/08/16 09:38:33;;;;;;;6.03;5.43;;;25.10;99.90;;;;;;4993860;28;20967;-65
2021/08/16 09:41:00;;;;;;;6.67;5.90;;;25.00;99.90;;;;;;4994121;28;21003;-65
2021/08/16 09:43:28;;;;;;;5.07;4.57;;;24.90;99.90;;;;;;4994563;28;20917;-65
2021/08/16 09:45:55;;;;;;;6.57;4.77;;;25.20;99.90;;;;;;4993866;28;20446;-65
2021/08/16 09:48:24;;;;;;;6.13;4.57;;;25.40;99.90;;;;;;4994080;28;20449;-65
2021/08/16 09:50:54;;;;;;;6.60;4.53;;;25.70;99.90;;;;;;4994059;28;20474;-65
2021/08/16 09:53:22;;;;;;;6.43;4.57;;;25.70;99.90;;;;;;4994136;28;20450;-65
2021/08/16 09:55:50;;;;;;;5.53;4.50;;;25.80;99.90;;;;;;4994339;28;20477;-65
2021/08/16 09:58:19;;;;;;;5.60;3.97;;;26.70;99.90;;;;;;4994201;28;20461;-65
2021/08/16 10:00:49;;;;;;;5.83;3.93;;;27.90;99.90;;;;;;4993700;28;20481;-65
2021/08/16 10:03:16;;;;;;;4.60;4.03;;;29.20;99.90;;;;;;4994144;28;20433;-66
2021/08/16 10:05:45;;;;;;;5.63;3.40;;;30.10;99.50;;;;;;4993795;28;20957;-66
2021/08/16 10:08:13;;;;;;;5.70;4.10;;;30.30;95.70;;;;;;4994124;28;20453;-66
2021/08/16 10:10:41;;;;;;;5.23;3.37;;;30.00;95.70;;;;;;4994032;28;20477;-65
2021/08/16 10:13:10;;;;;;;4.83;4.03;;;30.20;94.30;;;;;;4993958;28;20508;-66
2021/08/16 10:15:39;;;;;;;5.77;3.90;;;30.90;93.90;;;;;;4993946;28;20481;-66
2021/08/16 10:18:11;;;;;;;4.03;3.73;;;31.80;92.70;;;;;;4996651;28;20460;-66
2021/08/16 10:20:40;;;;;;;6.57;4.10;;;31.80;90.50;;;;;;4997623;28;20481;-66
2021/08/16 10:23:25;;;;;;;5.80;4.00;;;31.60;91.30;;;;;;4998769;28;20453;-66
2021/08/16 10:25:55;;;;;;;4.10;3.17;;;31.20;87.00;;;;;;5004893;28;20445;-66
2021/08/16 10:28:27;;;;;;;5.30;4.23;;;30.70;89.00;;;;;;5002619;28;20450;-65
2021/08/16 10:30:54;;;;;;;5.30;3.70;;;30.10;91.40;;;;;;4997230;28;20497;-65
2021/08/16 10:33:23;;;;;;;5.27;3.83;;;29.10;90.80;;;;;;4997194;28;20453;-65
2021/08/16 10:35:51;;;;;;;6.23;4.17;;;28.10;92.20;;;;;;4997177;28;20477;-65
2021/08/16 10:38:19;;;;;;;4.73;4.10;;;27.60;93.30;;;;;;4997438;28;20454;-65
2021/08/16 10:40:51;;;;;;;4.90;4.50;;;26.80;93.90;;;;;;4996703;28;20984;-65
2021/08/16 10:43:19;;;;;;;5.57;4.07;;;26.40;95.30;;;;;;4997627;28;20442;-65
2021/08/16 10:45:48;;;;;;;6.70;3.63;;;25.80;94.90;;;;;;4997214;28;20450;-65
2021/08/16 10:48:23;;;;;;;7.23;3.70;;;25.50;97.40;;;;;;4996685;28;20932;-65
2021/08/16 10:51:03;;;;;;;4.67;4.17;;;25.10;98.60;;;;;;4997072;28;20481;-65
2021/08/16 10:53:30;;;;;;;4.60;3.73;;;24.70;96.70;;;;;;4997024;28;20441;-65
2021/08/16 10:55:58;;;;;;;5.03;4.07;;;24.50;99.10;;;;;;4997010;28;20482;-65
2021/08/16 10:58:26;;;;;;;3.87;3.30;;;24.40;99.70;;;;;;4996911;28;20465;-65
2021/08/16 11:00:54;;;;;;;3.60;3.27;;;24.20;99.60;;;;;;4996749;28;20481;-65
2021/08/16 11:03:24;;;;;;;5.97;3.80;;;24.20;99.90;;;;;;4997542;28;20438;-65
2021/08/16 11:05:51;;;;;;;5.90;3.50;;;24.20;99.90;;;;;;4997109;28;20473;-65
2021/08/16 11:08:18;;;;;;;7.10;4.30;;;24.10;99.90;;;;;;4996945;28;20450;-65
2021/08/16 11:10:49;;;;;;;7.03;3.87;;;24.20;99.90;;;;;;4997156;28;20474;-65
2021/08/16 11:13:17;;;;;;;5.20;3.80;;;24.30;99.90;;;;;;4996573;28;20438;-65
2021/08/16 11:15:45;;;;;;;5.73;3.97;;;24.50;99.90;;;;;;4996651;28;20482;-65
2021/08/16 11:18:14;;;;;;;9.77;3.23;;;24.80;99.90;;;;;;5013101;28;20434;-65
2021/08/16 11:20:42;;;;;;;4.60;3.13;;;25.60;99.90;;;;;;5010958;28;20466;-65
2021/08/16 11:23:09;;;;;;;8.03;3.73;;;26.50;99.90;;;;;;4997102;28;20454;-65
2021/08/16 11:25:36;;;;;;;4.57;3.40;;;27.20;98.60;;;;;;4996557;28;20458;-65
2021/08/16 11:28:06;;;;;;;5.17;3.53;;;27.50;97.70;;;;;;4996208;28;20461;-65
2021/08/16 11:30:33;;;;;;;4.93;3.13;;;27.60;99.30;;;;;;4996372;28;20481;-65
2021/08/16 11:33:00;;;;;;;5.53;3.30;;;27.80;96.90;;;;;;4996136;28;20458;-65
2021/08/16 11:35:28;;;;;;;3.70;3.40;;;27.90;96.20;;;;;;4996233;28;20482;-65
2021/08/16 11:37:56;;;;;;;4.77;3.60;;;27.40;94.60;;;;;;4996150;28;20824;-65
2021/08/16 11:40:23;;;;;;;4.07;3.43;;;27.10;96.80;;;;;;4996101;28;20465;-65
2021/08/16 11:42:50;;;;;;;4.60;3.37;;;26.90;97.00;;;;;;4996170;28;20474;-65
2021/08/16 11:45:19;;;;;;;7.37;3.80;;;26.60;97.10;;;;;;4996008;28;20532;-65
2021/08/16 11:47:49;;;;;;;4.13;3.60;;;26.40;97.40;;;;;;4995458;28;20801;-65
2021/08/16 11:50:18;;;;;;;3.93;3.33;;;26.10;98.50;;;;;;4995852;28;20442;-64
2021/08/16 11:52:49;;;;;;;5.17;3.53;;;26.30;97.30;;;;;;4995920;28;20532;-65
2021/08/16 11:55:24;;;;;;;4.73;3.40;;;26.70;99.10;;;;;;4995923;28;20462;-65
2021/08/16 11:57:53;;;;;;;4.13;3.13;;;27.20;96.50;;;;;;4995890;28;20444;-65
2021/08/16 12:00:26;;;;;;;3.60;3.33;;;27.30;97.40;;;;;;4995759;28;20504;-65
2021/08/16 12:02:56;;;;;;;6.10;3.97;;;27.30;95.50;;;;;;4999134;28;20434;-65
2021/08/16 12:05:24;;;;;;;4.70;3.20;;;27.10;95.10;;;;;;4995722;28;20805;-66
2021/08/16 12:07:51;;;;;;;7.13;3.60;;;26.90;95.20;;;;;;4995673;28;20454;-65
2021/08/16 12:10:20;;;;;;;5.23;3.13;;;26.70;97.00;;;;;;5000776;28;20461;-65
2021/08/16 12:12:58;;;;;;;5.37;3.57;;;26.70;98.00;;;;;;5011637;28;20449;-65
2021/08/16 12:15:25;;;;;;;3.87;3.47;;;26.70;97.40;;;;;;4999032;28;20461;-65
2021/08/16 12:17:53;;;;;;;5.23;2.90;;;26.70;95.30;;;;;;4995476;28;20461;-65
2021/08/16 12:20:20;;;;;;;9.70;3.93;;;26.70;96.00;;;;;;4995338;28;20820;-66
2021/08/16 12:22:50;;;;;;;6.50;3.60;;;26.60;95.10;;;;;;4995323;28;20458;-65
2021/08/16 12:25:19;;;;;;;4.33;3.33;;;26.30;96.30;;;;;;4995383;28;20489;-65
2021/08/16 12:27:55;;;;;;;4.57;3.47;;;26.40;97.00;;;;;;4995415;28;20444;-65
2021/08/16 12:30:22;;;;;;;7.37;3.87;;;26.30;97.20;;;;;;4995793;28;20473;-65
2021/08/16 12:32:48;;;;;;;4.97;3.40;;;26.40;97.10;;;;;;4995099;28;20457;-65
2021/08/16 12:35:16;;;;;;;6.63;4.00;;;26.30;98.00;;;;;;4994836;28;20992;-65
2021/08/16 12:37:43;;;;;;;5.07;3.70;;;26.10;97.40;;;;;;4995028;28;20462;-65
2021/08/16 12:40:13;;;;;;;4.53;3.50;;;26.10;97.10;;;;;;4994560;28;20504;-65
2021/08/16 12:42:44;;;;;;;7.43;3.67;;;26.00;97.00;;;;;;4994972;28;20469;-65
2021/08/16 12:45:14;;;;;;;9.97;3.97;;;25.80;97.60;;;;;;4994959;28;20446;-65
2021/08/16 12:47:41;;;;;;;5.10;4.00;;;25.90;99.60;;;;;;4994761;28;20821;-65
2021/08/16 12:50:10;;;;;;;5.50;4.20;;;26.20;99.70;;;;;;4994873;28;20453;-65
2021/08/16 12:52:38;;;;;;;5.40;3.87;;;26.40;97.20;;;;;;4994787;28;20478;-65
2021/08/16 12:55:06;;;;;;;4.60;4.20;;;26.50;96.60;;;;;;4994713;28;20469;-65
2021/08/16 12:57:33;;;;;;;6.40;4.07;;;26.50;97.30;;;;;;4994743;28;20464;-65
2021/08/16 13:00:01;;;;;;;7.00;4.10;;;26.10;95.60;;;;;;4994682;28;20528;-65
2021/08/16 13:02:28;;;;;;;5.10;4.20;;;25.90;97.40;;;;;;4994133;28;20601;-65
2021/08/16 13:04:56;;;;;;;5.53;4.37;;;26.00;99.40;;;;;;4994507;28;20457;-66
2021/08/16 13:07:23;;;;;;;5.20;4.10;;;26.00;98.00;;;;;;4994509;28;20458;-66
2021/08/16 13:09:50;;;;;;;7.63;4.50;;;26.30;99.30;;;;;;4994487;28;20456;-66
2021/08/16 13:12:16;;;;;;;7.20;4.23;;;26.60;96.70;;;;;;4994357;28;20478;-65
2021/08/16 13:14:43;;;;;;;4.80;3.90;;;26.90;95.70;;;;;;4994188;28;20816;-65
2021/08/16 13:17:11;;;;;;;4.50;4.10;;;27.10;95.50;;;;;;4994055;28;20965;-65
2021/08/16 13:19:38;;;;;;;5.53;4.73;;;27.20;94.60;;;;;;4994055;28;20956;-65
2021/08/16 13:22:06;;;;;;;5.20;4.20;;;26.90;94.00;;;;;;4994331;28;20816;-65
2021/08/16 13:24:33;;;;;;;4.80;4.17;;;26.90;93.70;;;;;;4994534;28;20462;-66
2021/08/16 13:27:00;;;;;;;5.57;3.90;;;26.70;91.60;;;;;;4994466;28;20504;-66
2021/08/16 13:29:27;;;;;;;4.87;4.33;;;26.60;93.80;;;;;;4994262;28;20465;-65
2021/08/16 13:31:54;;;;;;;5.63;4.03;;;26.50;92.60;;;;;;4994203;28;20481;-65
2021/08/16 13:34:23;;;;;;;10.47;3.70;;;26.60;93.80;;;;;;4994109;28;20462;-65
2021/08/16 13:36:52;;;;;;;4.80;3.90;;;26.70;90.20;;;;;;4994174;28;20488;-65
2021/08/16 13:39:19;;;;;;;6.07;3.97;;;26.60;90.00;;;;;;4994250;28;20454;-65
2021/08/16 13:41:45;;;;;;;9.63;4.30;;;26.50;87.00;;;;;;4994122;28;20482;-65
2021/08/16 13:44:12;;;;;;;3.97;3.57;;;26.30;89.90;;;;;;4994215;28;20458;-65
2021/08/16 13:46:39;;;;;;;4.53;3.53;;;26.00;88.90;;;;;;4993880;28;20457;-65
2021/08/16 13:49:05;;;;;;;4.40;3.40;;;25.80;90.10;;;;;;4994202;28;20457;-65
2021/08/16 13:51:36;;;;;;;5.90;2.90;;;25.70;88.40;;;;;;4994746;28;20474;-65
2021/08/16 13:54:06;;;;;;;7.20;3.20;;;25.70;90.20;;;;;;4998092;28;20465;-65
2021/08/16 13:56:32;;;;;;;4.60;3.20;;;25.90;86.50;;;;;;4997909;28;20481;-65
2021/08/16 13:58:59;;;;;;;3.83;3.40;;;25.80;88.70;;;;;;4997901;28;20461;-65
2021/08/16 14:01:26;;;;;;;4.70;3.23;;;25.80;88.20;;;;;;4997592;28;20488;-66
2021/08/16 14:03:53;;;;;;;4.67;4.27;;;25.80;88.60;;;;;;4997819;28;20461;-65
2021/08/16 14:06:19;;;;;;;5.60;4.10;;;25.80;89.00;;;;;;4997929;28;20454;-65
2021/08/16 14:08:47;;;;;;;5.67;3.73;;;25.80;90.00;;;;;;4997766;28;20460;-65
2021/08/16 14:11:14;;;;;;;5.20;3.67;;;25.90;91.60;;;;;;4999256;28;20889;-65
2021/08/16 14:13:41;;;;;;;3.63;3.03;;;25.80;90.20;;;;;;4999276;28;20457;-65
2021/08/16 14:16:08;;;;;;;11.33;3.30;;;26.10;91.20;;;;;;4997824;28;20553;-65
2021/08/16 14:18:34;;;;;;;6.57;3.70;;;26.20;90.30;;;;;;4997665;28;20460;-66
2021/08/16 14:21:01;;;;;;;7.00;3.13;;;26.20;88.50;;;;;;4997603;28;20481;-65
2021/08/16 14:23:28;;;;;;;5.47;3.87;;;26.20;90.70;;;;;;4997262;28;20453;-65
2021/08/16 14:25:56;;;;;;;3.87;3.37;;;26.20;90.00;;;;;;4997583;28;20453;-65
2021/08/16 14:28:23;;;;;;;5.43;3.10;;;26.10;90.60;;;;;;4997158;28;20465;-65
2021/08/16 14:30:50;;;;;;;3.70;3.40;;;25.80;92.20;;;;;;5003510;28;20480;-65
2021/08/16 14:33:18;;;;;;;4.47;3.30;;;25.80;91.50;;;;;;5008837;28;20524;-65
2021/08/16 14:35:44;;;;;;;6.10;3.33;;;25.80;92.10;;;;;;4997524;28;20579;-65
2021/08/16 14:38:11;;;;;;;4.90;3.10;;;25.60;91.90;;;;;;4997147;28;20459;-65
2021/08/16 14:40:38;;;;;;;4.33;3.10;;;25.40;92.10;;;;;;4996806;28;20879;-65
2021/08/16 14:43:06;;;;;;;4.57;3.63;;;25.10;92.20;;;;;;4997131;28;20465;-65
2021/08/16 14:45:33;;;;;;;4.67;3.83;;;24.90;93.20;;;;;;4997097;28;20551;-65
2021/08/16 14:48:00;;;;;;;4.97;3.17;;;24.70;94.70;;;;;;4997154;28;20457;-65
2021/08/16 14:50:27;;;;;;;8.10;3.20;;;24.50;94.20;;;;;;4996960;28;20462;-65
2021/08/16 14:52:53;;;;;;;4.93;3.10;;;24.50;95.50;;;;;;4997057;28;20465;-65
2021/08/16 14:55:23;;;;;;;5.67;3.03;;;24.60;95.20;;;;;;4996913;28;20937;-65
2021/08/16 14:57:50;;;;;;;5.73;3.43;;;24.70;95.10;;;;;;4996594;28;20457;-65
2021/08/16 15:00:18;;;;;;;4.83;3.47;;;24.90;96.10;;;;;;4996558;28;20453;-65
2021/08/16 15:02:45;;;;;;;3.63;3.00;;;25.00;95.30;;;;;;4996435;28;20446;-65
2021/08/16 15:05:12;;;;;;;7.43;3.20;;;25.10;94.90;;;;;;4996424;28;20458;-65
2021/08/16 15:07:39;;;;;;;4.13;3.27;;;25.20;95.10;;;;;;4996591;28;20450;-65
2021/08/16 15:10:07;;;;;;;4.23;3.00;;;25.60;95.30;;;;;;4996356;28;20465;-65
2021/08/16 15:12:34;;;;;;;3.80;2.73;;;25.90;94.00;;;;;;4996590;28;20477;-66
2021/08/16 15:15:01;;;;;;;3.13;2.83;;;26.10;92.80;;;;;;4996523;28;20450;-66
2021/08/16 15:17:30;;;;;;;8.50;3.47;;;25.70;93.30;;;;;;4996576;28;20484;-65
2021/08/16 15:19:57;;;;;;;5.13;3.73;;;25.50;93.40;;;;;;4996234;28;20464;-65
2021/08/16 15:22:24;;;;;;;3.27;2.90;;;25.50;94.60;;;;;;4996330;28;20482;-65
2021/08/16 15:24:51;;;;;;;3.27;2.90;;;25.50;94.40;;;;;;4996386;28;20481;-65
2021/08/16 15:27:17;;;;;;;6.90;3.70;;;25.50;93.20;;;;;;4996388;28;20457;-65
2021/08/16 15:29:53;;;;;;;4.10;3.70;;;25.30;93.00;;;;;;4996273;28;20792;-65
2021/08/16 15:32:22;;;;;;;4.33;3.10;;;25.20;92.00;;;;;;5008448;28;20477;-65
2021/08/16 15:34:52;;;;;;;4.50;2.70;;;25.00;93.30;;;;;;5011423;28;20458;-65
2021/08/16 15:37:19;;;;;;;3.43;3.13;;;25.10;93.40;;;;;;4997047;28;20501;-65
2021/08/16 15:39:46;;;;;;;2.93;2.60;;;25.10;92.80;;;;;;4996585;28;20827;-65
2021/08/16 15:42:14;;;;;;;2.90;2.67;;;24.80;92.40;;;;;;4995805;28;21008;-65
2021/08/16 15:44:41;;;;;;;5.97;2.90;;;24.70;93.10;;;;;;4996273;28;20508;-65
2021/08/16 15:47:08;;;;;;;7.53;2.90;;;24.50;92.90;;;;;;4996001;28;20457;-65
2021/08/16 15:49:35;;;;;;;3.43;2.60;;;24.40;94.00;;;;;;4995957;28;20446;-65
2021/08/16 15:52:04;;;;;;;3.20;2.90;;;24.30;93.60;;;;;;4995836;28;20474;-66
2021/08/16 15:54:31;;;;;;;3.27;2.90;;;24.30;93.70;;;;;;4995837;28;20461;-66
2021/08/16 15:56:58;;;;;;;3.10;2.80;;;24.30;94.20;;;;;;4995729;28;20474;-66
2021/08/16 15:59:25;;;;;;;3.60;2.83;;;24.30;95.10;;;;;;4995673;28;20458;-66
2021/08/16 16:01:51;;;;;;;2.70;2.50;;;24.30;94.70;;;;;;4995196;28;20496;-66
2021/08/16 16:04:18;;;;;;;2.80;2.60;;;24.10;94.60;;;;;;4995433;28;20456;-66
2021/08/16 16:06:45;;;;;;;3.40;3.00;;;23.90;94.90;;;;;;4997172;28;20460;-65
2021/08/16 16:09:13;;;;;;;4.47;2.90;;;23.90;95.00;;;;;;4996097;28;20454;-66
2021/08/16 16:11:40;;;;;;;3.20;2.50;;;23.70;95.20;;;;;;4995980;28;20470;-66
2021/08/16 16:14:06;;;;;;;3.30;2.30;;;23.60;95.70;;;;;;4994634;28;20457;-66
2021/08/16 16:16:34;;;;;;;2.90;2.60;;;23.40;95.50;;;;;;4995206;28;20474;-66
2021/08/16 16:19:01;;;;;;;4.83;3.30;;;23.40;96.60;;;;;;4995323;28;20461;-66
2021/08/16 16:21:29;;;;;;;4.57;3.03;;;23.40;96.50;;;;;;4995251;28;20477;-66
2021/08/16 16:23:56;;;;;;;3.40;2.80;;;23.40;96.20;;;;;;4995102;28;20465;-66
2021/08/16 16:26:24;;;;;;;5.13;3.00;;;23.20;96.10;;;;;;4995163;28;20450;-66
2021/08/16 16:28:51;;;;;;;2.33;2.13;;;23.20;96.60;;;;;;4995068;28;20872;-66
2021/08/16 16:31:19;;;;;;;3.13;1.70;;;23.10;95.80;;;;;;4995060;28;20481;-66
2021/08/16 16:33:47;;;;;;;2.90;2.20;;;23.00;95.80;;;;;;4994927;28;20824;-66
2021/08/16 16:36:15;;;;;;;5.67;2.33;;;23.00;96.10;;;;;;4994866;28;20481;-66
2021/08/16 16:38:43;;;;;;;2.60;2.40;;;23.00;96.60;;;;;;4995102;28;20934;-66
2021/08/16 16:41:10;;;;;;;6.10;2.57;;;23.00;96.70;;;;;;4994697;28;20977;-66
2021/08/16 16:43:38;;;;;;;2.60;2.40;;;22.90;96.70;;;;;;4994747;28;20453;-66
2021/08/16 16:46:05;;;;;;;3.40;2.33;;;22.90;97.10;;;;;;4994399;28;20941;-66
2021/08/16 16:48:32;;;;;;;3.03;2.73;;;22.70;97.30;;;;;;4994835;28;20454;-66